sensor_id;sensor_type;location;lat;lon;timestamp;pressure;altitude;pressure_sealevel;temperature;humidity
64080;BME280;51042;49.696;10.808;2023-01-27T00:00:05;98708.25;;;-1.72;100.00
64080;BME280;51042;49.696;10.808;2023-01-27T00:02:31;98708.38;;;-1.68;100.00
64080;BME280;51042;49.696;10.808;2023-01-27T00:04:56;98710.94;;;-1.72;100.00
64080;BME280;51042;49.696;10.808;2023-01-27T00:07:21;98706.28;;;-1.75;100.00
64080;BME280;51042;49.696;10.808;2023-01-27T00:09:46;98705.69;;;-1.68;100.00
64080;BME280;51042;49.696;10.808;2023-01-27T00:12:16;98703.84;;;-1.64;100.00
64080;BME280;51042;49.696;10.808;2023-01-27T00:15:01;98703.66;;;-1.71;100.00
64080;BME280;51042;49.696;10.808;2023-01-27T00:17:28;98702.28;;;-1.81;100.00
64080;BME280;51042;49.696;10.808;2023-01-27T00:19:53;98712.78;;;-1.76;100.00
64080;BME280;51042;49.696;10.808;2023-01-27T00:22:18;98715.53;;;-1.72;100.00
64080;BME280;51042;49.696;10.808;2023-01-27T00:25:02;98717.13;;;-1.71;100.00
64080;BME280;51042;49.696;10.808;2023-01-27T00:27:27;98709.75;;;-1.74;100.00
64080;BME280;51042;49.696;10.808;2023-01-27T00:29:52;98711.81;;;-1.83;100.00
64080;BME280;51042;49.696;10.808;2023-01-27T00:32:17;98703.22;;;-1.89;100.00
64080;BME280;51042;49.696;10.808;2023-01-27T00:35:01;98703.41;;;-1.82;100.00
64080;BME280;51042;49.696;10.808;2023-01-27T00:37:27;98702.81;;;-1.75;100.00
64080;BME280;51042;49.696;10.808;2023-01-27T00:39:52;98709.38;;;-1.73;100.00
64080;BME280;51042;49.696;10.808;2023-01-27T00:42:17;98705.69;;;-1.68;100.00
64080;BME280;51042;49.696;10.808;2023-01-27T00:44:42;98704.44;;;-1.71;100.00
64080;BME280;51042;49.696;10.808;2023-01-27T00:47:27;98705.16;;;-1.74;100.00
64080;BME280;51042;49.696;10.808;2023-01-27T00:49:52;98712.78;;;-1.76;100.00
64080;BME280;51042;49.696;10.808;2023-01-27T00:52:18;98713.44;;;-1.79;100.00
64080;BME280;51042;49.696;10.808;2023-01-27T00:54:43;98706.16;;;-1.78;100.00
64080;BME280;51042;49.696;10.808;2023-01-27T00:57:08;98714.41;;;-1.71;100.00
64080;BME280;51042;49.696;10.808;2023-01-27T00:59:33;98710.47;;;-1.61;100.00
64080;BME280;51042;49.696;10.808;2023-01-27T01:01:58;98714.69;;;-1.60;100.00
64080;BME280;51042;49.696;10.808;2023-01-27T01:04:23;98718.09;;;-1.63;100.00
64080;BME280;51042;49.696;10.808;2023-01-27T01:06:48;98699.69;;;-1.61;100.00
64080;BME280;51042;49.696;10.808;2023-01-27T01:09:14;98711.31;;;-1.57;100.00
64080;BME280;51042;49.696;10.808;2023-01-27T01:11:39;98713.22;;;-1.58;100.00
64080;BME280;51042;49.696;10.808;2023-01-27T01:14:04;98708.28;;;-1.56;100.00
64080;BME280;51042;49.696;10.808;2023-01-27T01:16:29;98719.91;;;-1.52;100.00
64080;BME280;51042;49.696;10.808;2023-01-27T01:18:54;98707.25;;;-1.51;100.00
64080;BME280;51042;49.696;10.808;2023-01-27T01:21:21;98721.88;;;-1.49;100.00
64080;BME280;51042;49.696;10.808;2023-01-27T01:23:46;98716.50;;;-1.49;100.00
64080;BME280;51042;49.696;10.808;2023-01-27T01:26:12;98712.19;;;-1.53;100.00
64080;BME280;51042;49.696;10.808;2023-01-27T01:28:38;98713.75;;;-1.52;100.00
64080;BME280;51042;49.696;10.808;2023-01-27T01:31:07;98711.75;;;-1.55;100.00
64080;BME280;51042;49.696;10.808;2023-01-27T01:33:33;98717.13;;;-1.55;100.00
64080;BME280;51042;49.696;10.808;2023-01-27T01:36:02;98712.63;;;-1.51;100.00
64080;BME280;51042;49.696;10.808;2023-01-27T01:38:27;98717.66;;;-1.50;100.00
64080;BME280;51042;49.696;10.808;2023-01-27T01:40:52;98717.56;;;-1.53;100.00
64080;BME280;51042;49.696;10.808;2023-01-27T01:43:17;98708.97;;;-1.59;100.00
64080;BME280;51042;49.696;10.808;2023-01-27T01:45:48;98720.16;;;-1.57;100.00
64080;BME280;51042;49.696;10.808;2023-01-27T01:49:00;98719.91;;;-1.52;100.00
64080;BME280;51042;49.696;10.808;2023-01-27T01:53:32;98716.88;;;-1.50;100.00
64080;BME280;51042;49.696;10.808;2023-01-27T01:56:02;98713.22;;;-1.58;100.00
64080;BME280;51042;49.696;10.808;2023-01-27T01:58:29;98716.44;;;-1.52;100.00
64080;BME280;51042;49.696;10.808;2023-01-27T02:00:54;98712.69;;;-1.48;100.00
64080;BME280;51042;49.696;10.808;2023-01-27T02:03:20;98721.56;;;-1.47;100.00
64080;BME280;51042;49.696;10.808;2023-01-27T02:05:46;98718.84;;;-1.47;100.00
64080;BME280;51042;49.696;10.808;2023-01-27T02:08:15;98720.25;;;-1.53;100.00
64080;BME280;51042;49.696;10.808;2023-01-27T02:10:42;98717.75;;;-1.62;100.00
64080;BME280;51042;49.696;10.808;2023-01-27T02:13:08;98719.53;;;-1.66;100.00
64080;BME280;51042;49.696;10.808;2023-01-27T02:15:33;98713.81;;;-1.65;100.00
64080;BME280;51042;49.696;10.808;2023-01-27T02:17:58;98710.59;;;-1.70;100.00
64080;BME280;51042;49.696;10.808;2023-01-27T02:23:02;98722.00;;;-1.61;100.00
64080;BME280;51042;49.696;10.808;2023-01-27T02:28:00;98710.78;;;-1.63;100.00
64080;BME280;51042;49.696;10.808;2023-01-27T02:30:26;98708.09;;;-1.63;100.00
64080;BME280;51042;49.696;10.808;2023-01-27T02:32:51;98703.84;;;-1.64;100.00
64080;BME280;51042;49.696;10.808;2023-01-27T02:35:19;98705.06;;;-1.61;100.00
64080;BME280;51042;49.696;10.808;2023-01-27T02:37:46;98707.50;;;-1.56;100.00
64080;BME280;51042;49.696;10.808;2023-01-27T02:40:12;98706.00;;;-1.54;100.00
64080;BME280;51042;49.696;10.808;2023-01-27T02:42:37;98697.16;;;-1.54;100.00
64080;BME280;51042;49.696;10.808;2023-01-27T02:45:03;98693.94;;;-1.60;100.00
64080;BME280;51042;49.696;10.808;2023-01-27T02:47:28;98697.06;;;-1.58;100.00
64080;BME280;51042;49.696;10.808;2023-01-27T02:49:53;98702.72;;;-1.63;100.00
64080;BME280;51042;49.696;10.808;2023-01-27T02:52:19;98697.59;;;-1.68;100.00
64080;BME280;51042;49.696;10.808;2023-01-27T02:54:44;98703.78;;;-1.68;100.00
64080;BME280;51042;49.696;10.808;2023-01-27T02:57:09;98698.72;;;-1.69;100.00
64080;BME280;51042;49.696;10.808;2023-01-27T02:59:34;98689.88;;;-1.70;100.00
64080;BME280;51042;49.696;10.808;2023-01-27T03:02:00;98712.63;;;-1.67;100.00
64080;BME280;51042;49.696;10.808;2023-01-27T03:04:25;98710.78;;;-1.63;100.00
64080;BME280;51042;49.696;10.808;2023-01-27T03:06:50;98718.53;;;-1.61;100.00
64080;BME280;51042;49.696;10.808;2023-01-27T03:09:15;98705.84;;;-1.61;100.00
64080;BME280;51042;49.696;10.808;2023-01-27T03:11:40;98717.38;;;-1.60;100.00
64080;BME280;51042;49.696;10.808;2023-01-27T03:14:24;98717.38;;;-1.60;100.00
64080;BME280;51042;49.696;10.808;2023-01-27T03:17:08;98708.88;;;-1.62;100.00
64080;BME280;51042;49.696;10.808;2023-01-27T03:19:52;98724.31;;;-1.59;100.00
64080;BME280;51042;49.696;10.808;2023-01-27T03:22:17;98718.88;;;-1.63;100.00
64080;BME280;51042;49.696;10.808;2023-01-27T03:24:44;98719.47;;;-1.70;100.00
64080;BME280;51042;49.696;10.808;2023-01-27T03:27:09;98719.47;;;-1.70;100.00
64080;BME280;51042;49.696;10.808;2023-01-27T03:29:34;98726.41;;;-1.69;100.00
64080;BME280;51042;49.696;10.808;2023-01-27T03:32:18;98718.00;;;-1.67;100.00
64080;BME280;51042;49.696;10.808;2023-01-27T03:34:43;98730.31;;;-1.66;100.00
64080;BME280;51042;49.696;10.808;2023-01-27T03:37:09;98727.28;;;-1.65;100.00
64080;BME280;51042;49.696;10.808;2023-01-27T03:39:52;98735.69;;;-1.66;100.00
64080;BME280;51042;49.696;10.808;2023-01-27T03:42:36;98730.56;;;-1.71;100.00
64080;BME280;51042;49.696;10.808;2023-01-27T03:45:20;98729.00;;;-1.72;100.00
64080;BME280;51042;49.696;10.808;2023-01-27T03:48:04;98720.50;;;-1.74;100.00
64080;BME280;51042;49.696;10.808;2023-01-27T03:50:30;98717.91;;;-1.71;100.00
64080;BME280;51042;49.696;10.808;2023-01-27T03:53:01;98712.97;;;-1.69;100.00
64080;BME280;51042;49.696;10.808;2023-01-27T03:55:30;98716.78;;;-1.70;100.00
64080;BME280;51042;49.696;10.808;2023-01-27T03:57:55;98716.44;;;-1.68;100.00
64080;BME280;51042;49.696;10.808;2023-01-27T04:00:42;98730.91;;;-1.73;100.00
64080;BME280;51042;49.696;10.808;2023-01-27T04:03:07;98715.81;;;-1.77;100.00
64080;BME280;51042;49.696;10.808;2023-01-27T04:05:51;98727.34;;;-1.77;100.00
64080;BME280;51042;49.696;10.808;2023-01-27T04:08:35;98732.84;;;-1.73;100.00
64080;BME280;51042;49.696;10.808;2023-01-27T04:11:03;98718.00;;;-1.67;100.00
64080;BME280;51042;49.696;10.808;2023-01-27T04:13:47;98722.41;;;-1.75;100.00
64080;BME280;51042;49.696;10.808;2023-01-27T04:16:13;98720.94;;;-1.72;100.00
64080;BME280;51042;49.696;10.808;2023-01-27T04:18:38;98721.44;;;-1.67;100.00
64080;BME280;51042;49.696;10.808;2023-01-27T04:21:03;98722.16;;;-1.70;100.00
64080;BME280;51042;49.696;10.808;2023-01-27T04:23:28;98725.53;;;-1.73;100.00
64080;BME280;51042;49.696;10.808;2023-01-27T04:25:53;98724.84;;;-1.70;100.00
64080;BME280;51042;49.696;10.808;2023-01-27T04:28:20;98726.81;;;-1.67;100.00
64080;BME280;51042;49.696;10.808;2023-01-27T04:30:45;98736.13;;;-1.64;100.00
64080;BME280;51042;49.696;10.808;2023-01-27T04:33:11;98739.16;;;-1.66;100.00
64080;BME280;51042;49.696;10.808;2023-01-27T04:35:41;98727.53;;;-1.70;100.00
64080;BME280;51042;49.696;10.808;2023-01-27T04:38:07;98726.75;;;-1.70;100.00
64080;BME280;51042;49.696;10.808;2023-01-27T04:40:32;98724.75;;;-1.73;100.00
64080;BME280;51042;49.696;10.808;2023-01-27T04:42:57;98739.66;;;-1.76;100.00
64080;BME280;51042;49.696;10.808;2023-01-27T04:45:22;98726.66;;;-1.74;100.00
64080;BME280;51042;49.696;10.808;2023-01-27T04:47:47;98734.63;;;-1.77;100.00
64080;BME280;51042;49.696;10.808;2023-01-27T04:50:12;98732.28;;;-1.79;100.00
64080;BME280;51042;49.696;10.808;2023-01-27T04:52:38;98740.78;;;-1.77;100.00
64080;BME280;51042;49.696;10.808;2023-01-27T04:55:03;98741.13;;;-1.78;100.00
64080;BME280;51042;49.696;10.808;2023-01-27T04:57:28;98739.94;;;-1.81;100.00
64080;BME280;51042;49.696;10.808;2023-01-27T04:59:53;98756.41;;;-1.82;100.00
64080;BME280;51042;49.696;10.808;2023-01-27T05:02:18;98748.59;;;-1.87;100.00
64080;BME280;51042;49.696;10.808;2023-01-27T05:04:44;98752.50;;;-1.85;100.00
64080;BME280;51042;49.696;10.808;2023-01-27T05:07:10;98750.25;;;-1.83;100.00
64080;BME280;51042;49.696;10.808;2023-01-27T05:09:35;98756.47;;;-1.79;100.00
64080;BME280;51042;49.696;10.808;2023-01-27T05:12:00;98755.72;;;-1.79;100.00
64080;BME280;51042;49.696;10.808;2023-01-27T05:14:25;98756.41;;;-1.82;100.00
64080;BME280;51042;49.696;10.808;2023-01-27T05:16:51;98752.16;;;-1.83;100.00
64080;BME280;51042;49.696;10.808;2023-01-27T05:19:16;98753.72;;;-1.82;100.00
64080;BME280;51042;49.696;10.808;2023-01-27T05:21:41;98743.75;;;-1.82;100.00
64080;BME280;51042;49.696;10.808;2023-01-27T05:24:07;98755.63;;;-1.83;100.00
64080;BME280;51042;49.696;10.808;2023-01-27T05:26:33;98749.81;;;-1.85;100.00
64080;BME280;51042;49.696;10.808;2023-01-27T05:28:59;98745.66;;;-1.82;100.00
64080;BME280;51042;49.696;10.808;2023-01-27T05:31:26;98751.81;;;-1.82;100.00
64080;BME280;51042;49.696;10.808;2023-01-27T05:33:52;98754.50;;;-1.82;100.00
64080;BME280;51042;49.696;10.808;2023-01-27T05:36:18;98754.06;;;-1.84;100.00
64080;BME280;51042;49.696;10.808;2023-01-27T05:38:44;98752.84;;;-1.86;100.00
64080;BME280;51042;49.696;10.808;2023-01-27T05:41:09;98756.75;;;-1.84;100.00
64080;BME280;51042;49.696;10.808;2023-01-27T05:43:35;98762.13;;;-1.84;100.00
64080;BME280;51042;49.696;10.808;2023-01-27T05:46:11;98767.06;;;-1.86;100.00
64080;BME280;51042;49.696;10.808;2023-01-27T05:48:38;98764.38;;;-1.86;100.00
64080;BME280;51042;49.696;10.808;2023-01-27T05:51:04;98759.00;;;-1.86;100.00
64080;BME280;51042;49.696;10.808;2023-01-27T05:53:29;98765.84;;;-1.88;100.00
64080;BME280;51042;49.696;10.808;2023-01-27T05:55:55;98763.59;;;-1.86;100.00
64080;BME280;51042;49.696;10.808;2023-01-27T05:58:20;98767.88;;;-1.85;100.00
64080;BME280;51042;49.696;10.808;2023-01-27T06:00:46;98764.81;;;-1.84;100.00
64080;BME280;51042;49.696;10.808;2023-01-27T06:03:11;98771.69;;;-1.86;100.00
64080;BME280;51042;49.696;10.808;2023-01-27T06:05:37;98767.34;;;-1.91;100.00
64080;BME280;51042;49.696;10.808;2023-01-27T06:08:02;98773.38;;;-1.94;99.47
64080;BME280;51042;49.696;10.808;2023-01-27T06:10:27;98775.63;;;-1.96;99.07
64080;BME280;51042;49.696;10.808;2023-01-27T06:12:53;98787.84;;;-1.98;97.28
64080;BME280;51042;49.696;10.808;2023-01-27T06:15:18;98784.63;;;-2.04;96.21
64080;BME280;51042;49.696;10.808;2023-01-27T06:17:43;98791.78;;;-2.08;97.35
64080;BME280;51042;49.696;10.808;2023-01-27T06:20:09;98797.53;;;-2.10;96.51
64080;BME280;51042;49.696;10.808;2023-01-27T06:22:34;98802.47;;;-2.12;96.92
64080;BME280;51042;49.696;10.808;2023-01-27T06:24:59;98806.72;;;-2.11;97.22
64080;BME280;51042;49.696;10.808;2023-01-27T06:27:24;98808.72;;;-2.08;97.75
64080;BME280;51042;49.696;10.808;2023-01-27T06:29:49;98812.56;;;-2.09;97.40
64080;BME280;51042;49.696;10.808;2023-01-27T06:32:15;98811.06;;;-2.06;97.87
64080;BME280;51042;49.696;10.808;2023-01-27T06:34:40;98805.34;;;-2.04;98.20
64080;BME280;51042;49.696;10.808;2023-01-27T06:37:05;98802.66;;;-2.04;98.29
64080;BME280;51042;49.696;10.808;2023-01-27T06:39:30;98808.13;;;-2.01;98.84
64080;BME280;51042;49.696;10.808;2023-01-27T06:41:55;98803.09;;;-2.02;98.67
64080;BME280;51042;49.696;10.808;2023-01-27T06:44:20;98813.41;;;-2.04;98.37
64080;BME280;51042;49.696;10.808;2023-01-27T06:46:46;98817.94;;;-2.09;98.32
64080;BME280;51042;49.696;10.808;2023-01-27T06:49:11;98817.13;;;-2.09;98.17
64080;BME280;51042;49.696;10.808;2023-01-27T06:51:37;98818.69;;;-2.08;98.62
64080;BME280;51042;49.696;10.808;2023-01-27T06:54:02;98814.00;;;-2.11;98.67
64080;BME280;51042;49.696;10.808;2023-01-27T06:56:27;98814.78;;;-2.11;98.26
64080;BME280;51042;49.696;10.808;2023-01-27T06:58:52;98827.00;;;-2.13;98.05
64080;BME280;51042;49.696;10.808;2023-01-27T07:01:17;98827.69;;;-2.16;97.87
64080;BME280;51042;49.696;10.808;2023-01-27T07:03:43;98823.88;;;-2.15;99.29
64080;BME280;51042;49.696;10.808;2023-01-27T07:06:08;98833.94;;;-2.12;99.72
64080;BME280;51042;49.696;10.808;2023-01-27T07:08:35;98837.06;;;-2.10;99.21
64080;BME280;51042;49.696;10.808;2023-01-27T07:11:03;98840.19;;;-2.08;99.95
64080;BME280;51042;49.696;10.808;2023-01-27T07:13:29;98841.75;;;-2.07;98.85
64080;BME280;51042;49.696;10.808;2023-01-27T07:15:54;98837.63;;;-2.04;99.59
64080;BME280;51042;49.696;10.808;2023-01-27T07:18:20;98840.84;;;-1.99;100.00
64080;BME280;51042;49.696;10.808;2023-01-27T07:20:45;98837.47;;;-1.96;99.51
64080;BME280;51042;49.696;10.808;2023-01-27T07:23:10;98839.16;;;-1.91;99.99
64080;BME280;51042;49.696;10.808;2023-01-27T07:25:37;98843.38;;;-1.90;98.87
64080;BME280;51042;49.696;10.808;2023-01-27T07:28:03;98854.25;;;-1.87;99.13
64080;BME280;51042;49.696;10.808;2023-01-27T07:30:28;98850.53;;;-1.82;98.65
64080;BME280;51042;49.696;10.808;2023-01-27T07:32:53;98849.16;;;-1.76;99.58
64080;BME280;51042;49.696;10.808;2023-01-27T07:35:21;98850.03;;;-1.72;97.94
64080;BME280;51042;49.696;10.808;2023-01-27T07:37:47;98853.97;;;-1.70;96.39
64080;BME280;51042;49.696;10.808;2023-01-27T07:40:12;98862.91;;;-1.66;97.88
64080;BME280;51042;49.696;10.808;2023-01-27T07:42:37;98856.41;;;-1.65;97.50
64080;BME280;51042;49.696;10.808;2023-01-27T07:45:02;98861.53;;;-1.59;96.66
64080;BME280;51042;49.696;10.808;2023-01-27T07:47:28;98851.16;;;-1.61;96.74
64080;BME280;51042;49.696;10.808;2023-01-27T07:49:53;98853.91;;;-1.57;97.04
64080;BME280;51042;49.696;10.808;2023-01-27T07:52:18;98856.16;;;-1.59;95.99
64080;BME280;51042;49.696;10.808;2023-01-27T07:54:43;98862.13;;;-1.66;95.19
64080;BME280;51042;49.696;10.808;2023-01-27T07:57:08;98862.81;;;-1.69;96.43
64080;BME280;51042;49.696;10.808;2023-01-27T07:59:34;98863.59;;;-1.69;96.77
64080;BME280;51042;49.696;10.808;2023-01-27T08:01:59;98869.31;;;-1.70;96.24
64080;BME280;51042;49.696;10.808;2023-01-27T08:04:24;98871.22;;;-1.71;96.31
64080;BME280;51042;49.696;10.808;2023-01-27T08:06:49;98872.78;;;-1.70;96.45
64080;BME280;51042;49.696;10.808;2023-01-27T08:09:14;98870.56;;;-1.68;97.30
64080;BME280;51042;49.696;10.808;2023-01-27T08:11:40;98872.66;;;-1.61;97.34
64080;BME280;51042;49.696;10.808;2023-01-27T08:14:05;98873.19;;;-1.55;97.44
64080;BME280;51042;49.696;10.808;2023-01-27T08:16:30;98876.44;;;-1.50;97.64
64080;BME280;51042;49.696;10.808;2023-01-27T08:18:55;98872.16;;;-1.51;96.97
64080;BME280;51042;49.696;10.808;2023-01-27T08:21:20;98866.09;;;-1.48;96.63
64080;BME280;51042;49.696;10.808;2023-01-27T08:23:46;98868.00;;;-1.48;95.06
64080;BME280;51042;49.696;10.808;2023-01-27T08:26:11;98868.63;;;-1.39;96.24
64080;BME280;51042;49.696;10.808;2023-01-27T08:28:37;98876.13;;;-1.33;96.04
64080;BME280;51042;49.696;10.808;2023-01-27T08:31:03;98873.69;;;-1.22;97.04
64080;BME280;51042;49.696;10.808;2023-01-27T08:33:28;98875.47;;;-1.14;95.53
64080;BME280;51042;49.696;10.808;2023-01-27T08:35:54;98882.94;;;-1.07;95.21
64080;BME280;51042;49.696;10.808;2023-01-27T08:38:19;98872.50;;;-1.09;94.22
64080;BME280;51042;49.696;10.808;2023-01-27T08:40:45;98882.03;;;-1.11;93.11
64080;BME280;51042;49.696;10.808;2023-01-27T08:43:11;98884.84;;;-1.08;94.49
64080;BME280;51042;49.696;10.808;2023-01-27T08:45:37;98888.56;;;-1.12;92.74
64080;BME280;51042;49.696;10.808;2023-01-27T08:48:02;98882.84;;;-1.11;94.08
64080;BME280;51042;49.696;10.808;2023-01-27T08:50:29;98887.09;;;-1.10;93.76
64080;BME280;51042;49.696;10.808;2023-01-27T08:52:55;98890.06;;;-0.99;95.26
64080;BME280;51042;49.696;10.808;2023-01-27T08:55:25;98884.41;;;-0.94;92.40
64080;BME280;51042;49.696;10.808;2023-01-27T08:57:50;98895.28;;;-0.91;92.72
64080;BME280;51042;49.696;10.808;2023-01-27T09:00:16;98892.31;;;-0.86;92.66
64080;BME280;51042;49.696;10.808;2023-01-27T09:02:41;98890.06;;;-0.84;91.65
64080;BME280;51042;49.696;10.808;2023-01-27T09:05:06;98899.44;;;-0.77;93.06
64080;BME280;51042;49.696;10.808;2023-01-27T09:07:32;98896.75;;;-0.77;93.22
64080;BME280;51042;49.696;10.808;2023-01-27T09:09:58;98892.31;;;-0.70;92.17
64080;BME280;51042;49.696;10.808;2023-01-27T09:12:23;98887.00;;;-0.51;92.51
64080;BME280;51042;49.696;10.808;2023-01-27T09:14:48;98887.69;;;-0.38;91.14
64080;BME280;51042;49.696;10.808;2023-01-27T09:17:13;98896.84;;;-0.43;90.14
64080;BME280;51042;49.696;10.808;2023-01-27T09:19:43;98898.31;;;-0.45;89.87
64080;BME280;51042;49.696;10.808;2023-01-27T09:22:08;98887.09;;;-0.47;91.36
64080;BME280;51042;49.696;10.808;2023-01-27T09:24:33;98897.19;;;-0.44;89.67
64080;BME280;51042;49.696;10.808;2023-01-27T09:26:59;98900.94;;;-0.49;89.51
64080;BME280;51042;49.696;10.808;2023-01-27T09:29:24;98896.66;;;-0.50;89.60
64080;BME280;51042;49.696;10.808;2023-01-27T09:31:49;98901.28;;;-0.50;90.82
64080;BME280;51042;49.696;10.808;2023-01-27T09:34:14;98903.91;;;-0.54;90.39
64080;BME280;51042;49.696;10.808;2023-01-27T09:36:42;98901.88;;;-0.57;90.31
64080;BME280;51042;49.696;10.808;2023-01-27T09:39:11;98895.63;;;-0.61;89.95
64080;BME280;51042;49.696;10.808;2023-01-27T09:54:42;98900.25;;;-0.61;88.31
64080;BME280;51042;49.696;10.808;2023-01-27T09:57:17;98902.66;;;-0.56;89.63
64080;BME280;51042;49.696;10.808;2023-01-27T10:04:45;98907.63;;;-0.43;87.54
64080;BME280;51042;49.696;10.808;2023-01-27T10:07:18;98900.22;;;-0.46;87.68
64080;BME280;51042;49.696;10.808;2023-01-27T10:13:07;98908.75;;;-0.44;88.28
64080;BME280;51042;49.696;10.808;2023-01-27T10:15:24;98909.53;;;-0.43;87.65
64080;BME280;51042;49.696;10.808;2023-01-27T10:27:59;98917.84;;;-0.17;86.64
64080;BME280;51042;49.696;10.808;2023-01-27T10:30:34;98925.06;;;-0.21;86.29
64080;BME280;51042;49.696;10.808;2023-01-27T10:33:21;98917.84;;;-0.17;85.92
64080;BME280;51042;49.696;10.808;2023-01-27T10:35:52;98921.72;;;0.02;85.34
64080;BME280;51042;49.696;10.808;2023-01-27T10:38:39;98907.41;;;0.17;85.30
64080;BME280;51042;49.696;10.808;2023-01-27T10:51:25;98921.06;;;0.43;82.60
64080;BME280;51042;49.696;10.808;2023-01-27T10:53:55;98913.09;;;0.12;83.26
64080;BME280;51042;49.696;10.808;2023-01-27T10:56:32;98904.59;;;0.29;84.14
64080;BME280;51042;49.696;10.808;2023-01-27T11:01:35;98888.88;;;0.34;85.10
64080;BME280;51042;49.696;10.808;2023-01-27T11:04:05;98895.47;;;0.56;83.65
64080;BME280;51042;49.696;10.808;2023-01-27T11:06:35;98894.13;;;0.66;81.88
64080;BME280;51042;49.696;10.808;2023-01-27T11:09:05;98892.47;;;0.80;82.50
64080;BME280;51042;49.696;10.808;2023-01-27T11:11:32;98887.72;;;0.74;81.33
64080;BME280;51042;49.696;10.808;2023-01-27T11:14:13;98893.41;;;0.50;81.84
64080;BME280;51042;49.696;10.808;2023-01-27T11:16:39;98892.50;;;0.42;83.26
64080;BME280;51042;49.696;10.808;2023-01-27T11:21:52;98895.19;;;0.42;82.78
64080;BME280;51042;49.696;10.808;2023-01-27T11:24:23;98896.25;;;0.37;82.53
64080;BME280;51042;49.696;10.808;2023-01-27T11:26:52;98899.19;;;0.29;84.87
64080;BME280;51042;49.696;10.808;2023-01-27T11:34:27;98890.03;;;0.33;84.02
64080;BME280;51042;49.696;10.808;2023-01-27T11:36:55;98892.63;;;0.30;84.08
64080;BME280;51042;49.696;10.808;2023-01-27T11:39:20;98888.78;;;0.31;83.41
64080;BME280;51042;49.696;10.808;2023-01-27T11:41:49;98886.69;;;0.40;83.16
64080;BME280;51042;49.696;10.808;2023-01-27T11:44:16;98881.06;;;0.49;81.76
64080;BME280;51042;49.696;10.808;2023-01-27T11:46:43;98871.53;;;0.55;81.19
64080;BME280;51042;49.696;10.808;2023-01-27T11:49:09;98869.69;;;0.59;81.86
64080;BME280;51042;49.696;10.808;2023-01-27T11:51:37;98864.16;;;0.52;81.16
64080;BME280;51042;49.696;10.808;2023-01-27T11:54:09;98872.59;;;0.50;81.46
64080;BME280;51042;49.696;10.808;2023-01-27T11:56:36;98870.75;;;0.54;81.12
64080;BME280;51042;49.696;10.808;2023-01-27T11:59:04;98865.47;;;0.61;81.71
64080;BME280;51042;49.696;10.808;2023-01-27T12:01:37;98858.75;;;0.71;80.21
64080;BME280;51042;49.696;10.808;2023-01-27T12:04:04;98853.75;;;0.73;79.91
64080;BME280;51042;49.696;10.808;2023-01-27T12:06:34;98859.56;;;0.75;80.29
64080;BME280;51042;49.696;10.808;2023-01-27T12:09:02;98856.94;;;0.78;80.34
64080;BME280;51042;49.696;10.808;2023-01-27T12:11:28;98867.06;;;0.85;80.76
64080;BME280;51042;49.696;10.808;2023-01-27T12:16:19;98862.66;;;1.19;80.62
64080;BME280;51042;49.696;10.808;2023-01-27T12:18:49;98858.88;;;1.23;78.58
64080;BME280;51042;49.696;10.808;2023-01-27T12:21:15;98855.75;;;1.21;78.60
64080;BME280;51042;49.696;10.808;2023-01-27T12:23:48;98849.19;;;1.22;77.59
64080;BME280;51042;49.696;10.808;2023-01-27T12:26:15;98852.56;;;1.16;77.38
64080;BME280;51042;49.696;10.808;2023-01-27T12:28:52;98845.13;;;1.09;79.50
64080;BME280;51042;49.696;10.808;2023-01-27T12:31:22;98841.28;;;1.10;78.21
64080;BME280;51042;49.696;10.808;2023-01-27T12:33:55;98847.69;;;1.02;78.44
64080;BME280;51042;49.696;10.808;2023-01-27T12:36:22;98851.34;;;1.13;78.16
64080;BME280;51042;49.696;10.808;2023-01-27T12:38:51;98848.19;;;1.31;78.80
64080;BME280;51042;49.696;10.808;2023-01-27T12:41:26;98842.31;;;1.25;77.95
64080;BME280;51042;49.696;10.808;2023-01-27T12:44:07;98837.78;;;1.10;77.14
64080;BME280;51042;49.696;10.808;2023-01-27T12:46:33;98841.22;;;1.30;77.66
64080;BME280;51042;49.696;10.808;2023-01-27T12:49:08;98845.84;;;1.29;76.34
64080;BME280;51042;49.696;10.808;2023-01-27T12:51:36;98837.75;;;1.33;76.60
64080;BME280;51042;49.696;10.808;2023-01-27T12:54:24;98831.25;;;1.37;76.23
64080;BME280;51042;49.696;10.808;2023-01-27T12:56:50;98835.50;;;1.35;76.93
64080;BME280;51042;49.696;10.808;2023-01-27T12:59:16;98829.00;;;1.39;76.34
64080;BME280;51042;49.696;10.808;2023-01-27T13:01:42;98840.16;;;1.38;75.71
64080;BME280;51042;49.696;10.808;2023-01-27T13:04:18;98837.75;;;1.33;76.49
64080;BME280;51042;49.696;10.808;2023-01-27T13:06:48;98836.16;;;1.28;77.13
64080;BME280;51042;49.696;10.808;2023-01-27T13:11:54;98845.53;;;1.11;76.48
64080;BME280;51042;49.696;10.808;2023-01-27T13:14:21;98840.97;;;1.15;76.06
64080;BME280;51042;49.696;10.808;2023-01-27T13:16:50;98842.28;;;1.02;75.50
64080;BME280;51042;49.696;10.808;2023-01-27T13:19:16;98851.66;;;0.86;76.20
64080;BME280;51042;49.696;10.808;2023-01-27T13:21:42;98846.69;;;0.88;76.04
64080;BME280;51042;49.696;10.808;2023-01-27T13:24:13;98846.50;;;1.00;76.57
64080;BME280;51042;49.696;10.808;2023-01-27T13:26:43;98850.66;;;0.94;75.71
64080;BME280;51042;49.696;10.808;2023-01-27T13:29:11;98847.88;;;0.90;76.98
64080;BME280;51042;49.696;10.808;2023-01-27T13:31:57;98854.31;;;0.82;78.04
64080;BME280;51042;49.696;10.808;2023-01-27T13:36:55;98858.63;;;0.87;78.38
64080;BME280;51042;49.696;10.808;2023-01-27T13:41:54;98863.91;;;0.79;78.72
64080;BME280;51042;49.696;10.808;2023-01-27T13:47:07;98861.19;;;0.79;78.54
64080;BME280;51042;49.696;10.808;2023-01-27T13:49:38;98862.03;;;0.83;78.37
64080;BME280;51042;49.696;10.808;2023-01-27T13:52:05;98864.47;;;0.89;78.60
64080;BME280;51042;49.696;10.808;2023-01-27T13:54:31;98860.50;;;0.82;78.24
64080;BME280;51042;49.696;10.808;2023-01-27T13:57:40;98868.94;;;0.81;78.75
64080;BME280;51042;49.696;10.808;2023-01-27T14:05:09;98862.03;;;0.83;77.85
64080;BME280;51042;49.696;10.808;2023-01-27T14:10:16;98870.06;;;0.80;78.59